Lindford, Minnesota
Current Conditions -  °F | °C
As of 1:55 AM on Monday 22 Dec 2014 (Local Time) from KINL Reporting Station
Haze Haze  
Wind Chill: 28°   Ceiling: 300
Heat Index: 33°   Visibility: 5mi
Dew Point: 31°   Wind: 6mph
Humidity: 92%   Direction: 130°SE
Pressure: 29.65"   Gusts: NA
Location:  48.2756°N, 93.4004°W
Report Text: KINL 220755Z AUTO 13005KT 5SM BR OVC003 01/M01 A2965 RMK AO2 SLP057 T00061006
Loading
Personal Weather Stations






























Interactive Weather Map New forecast layout! Learn more

10-Day Weather Forecast

Advertisements
Track Severe Weather on mobile